sensor_id;sensor_type;location;lat;lon;timestamp;temperature;humidity
16178;DHT22;8195;51.220;9.746;2023-05-17T00:08:27;7.30;97.20
16178;DHT22;8195;51.220;9.746;2023-05-17T00:18:51;7.20;97.20
16178;DHT22;8195;51.220;9.746;2023-05-17T00:29:12;7.10;97.20
16178;DHT22;8195;51.220;9.746;2023-05-17T00:39:33;7.00;97.20
16178;DHT22;8195;51.220;9.746;2023-05-17T00:49:54;6.90;97.20
16178;DHT22;8195;51.220;9.746;2023-05-17T01:00:15;6.80;97.20
16178;DHT22;8195;51.220;9.746;2023-05-17T01:10:56;6.70;97.20
16178;DHT22;8195;51.220;9.746;2023-05-17T01:32:12;6.70;97.20
16178;DHT22;8195;51.220;9.746;2023-05-17T01:42:38;7.00;97.20
16178;DHT22;8195;51.220;9.746;2023-05-17T01:53:12;7.10;97.20
16178;DHT22;8195;51.220;9.746;2023-05-17T02:03:37;7.10;97.20
16178;DHT22;8195;51.220;9.746;2023-05-17T02:14:01;7.20;97.20
16178;DHT22;8195;51.220;9.746;2023-05-17T02:24:46;7.40;97.20
16178;DHT22;8195;51.220;9.746;2023-05-17T02:35:07;7.50;97.20
16178;DHT22;8195;51.220;9.746;2023-05-17T02:45:28;7.40;97.20
16178;DHT22;8195;51.220;9.746;2023-05-17T02:55:49;7.50;97.20
16178;DHT22;8195;51.220;9.746;2023-05-17T03:06:10;7.50;97.20
16178;DHT22;8195;51.220;9.746;2023-05-17T03:16:31;7.60;97.20
16178;DHT22;8195;51.220;9.746;2023-05-17T03:26:52;7.70;97.20
16178;DHT22;8195;51.220;9.746;2023-05-17T03:37:13;7.70;97.20
16178;DHT22;8195;51.220;9.746;2023-05-17T03:47:34;7.80;97.20
16178;DHT22;8195;51.220;9.746;2023-05-17T03:57:55;7.80;97.20
16178;DHT22;8195;51.220;9.746;2023-05-17T04:08:15;7.80;97.20
16178;DHT22;8195;51.220;9.746;2023-05-17T04:18:46;7.90;97.20
16178;DHT22;8195;51.220;9.746;2023-05-17T04:29:06;7.90;97.20
16178;DHT22;8195;51.220;9.746;2023-05-17T04:39:27;7.90;97.20
16178;DHT22;8195;51.220;9.746;2023-05-17T04:49:48;8.00;97.20
16178;DHT22;8195;51.220;9.746;2023-05-17T05:00:10;8.00;97.20
16178;DHT22;8195;51.220;9.746;2023-05-17T05:10:31;8.00;97.20
16178;DHT22;8195;51.220;9.746;2023-05-17T05:20:55;8.20;97.20
16178;DHT22;8195;51.220;9.746;2023-05-17T05:31:25;8.20;97.20
16178;DHT22;8195;51.220;9.746;2023-05-17T05:41:46;8.20;97.20
16178;DHT22;8195;51.220;9.746;2023-05-17T05:52:13;8.40;97.20
16178;DHT22;8195;51.220;9.746;2023-05-17T06:13:11;8.70;97.20
16178;DHT22;8195;51.220;9.746;2023-05-17T06:23:32;9.40;97.20
16178;DHT22;8195;51.220;9.746;2023-05-17T06:33:53;9.40;97.20
16178;DHT22;8195;51.220;9.746;2023-05-17T06:44:14;10.00;97.20
16178;DHT22;8195;51.220;9.746;2023-05-17T06:54:35;9.80;97.20
16178;DHT22;8195;51.220;9.746;2023-05-17T07:04:56;9.40;97.20
16178;DHT22;8195;51.220;9.746;2023-05-17T07:15:19;10.80;97.20
16178;DHT22;8195;51.220;9.746;2023-05-17T07:25:40;10.90;97.20
16178;DHT22;8195;51.220;9.746;2023-05-17T07:36:32;11.70;97.20
16178;DHT22;8195;51.220;9.746;2023-05-17T07:47:11;12.80;97.20
16178;DHT22;8195;51.220;9.746;2023-05-17T07:57:59;12.60;97.20
16178;DHT22;8195;51.220;9.746;2023-05-17T08:08:16;12.50;97.20
16178;DHT22;8195;51.220;9.746;2023-05-17T08:18:58;12.10;97.20
16178;DHT22;8195;51.220;9.746;2023-05-17T08:29:19;13.30;97.20
16178;DHT22;8195;51.220;9.746;2023-05-17T08:39:40;13.00;97.20
16178;DHT22;8195;51.220;9.746;2023-05-17T08:50:00;12.90;97.20
16178;DHT22;8195;51.220;9.746;2023-05-17T09:00:25;13.20;97.20
16178;DHT22;8195;51.220;9.746;2023-05-17T09:10:46;13.50;97.20
16178;DHT22;8195;51.220;9.746;2023-05-17T09:21:08;12.90;97.20
16178;DHT22;8195;51.220;9.746;2023-05-17T09:31:33;13.20;97.20
16178;DHT22;8195;51.220;9.746;2023-05-17T09:41:55;13.50;97.20
16178;DHT22;8195;51.220;9.746;2023-05-17T09:52:20;13.40;97.20
16178;DHT22;8195;51.220;9.746;2023-05-17T10:02:41;14.10;97.20
16178;DHT22;8195;51.220;9.746;2023-05-17T10:13:08;14.30;97.20
16178;DHT22;8195;51.220;9.746;2023-05-17T10:23:30;15.00;97.20
16178;DHT22;8195;51.220;9.746;2023-05-17T10:33:53;15.60;97.20
16178;DHT22;8195;51.220;9.746;2023-05-17T10:54:58;15.00;97.20
16178;DHT22;8195;51.220;9.746;2023-05-17T11:05:33;14.70;97.20
16178;DHT22;8195;51.220;9.746;2023-05-17T11:16:04;15.20;97.20
16178;DHT22;8195;51.220;9.746;2023-05-17T11:27:03;15.50;97.20
16178;DHT22;8195;51.220;9.746;2023-05-17T11:37:28;15.80;97.20
16178;DHT22;8195;51.220;9.746;2023-05-17T11:47:56;15.30;97.20
16178;DHT22;8195;51.220;9.746;2023-05-17T11:58:38;15.20;97.20
16178;DHT22;8195;51.220;9.746;2023-05-17T12:09:56;15.50;97.20
16178;DHT22;8195;51.220;9.746;2023-05-17T12:20:17;15.80;97.20
16178;DHT22;8195;51.220;9.746;2023-05-17T12:41:24;16.00;97.20
16178;DHT22;8195;51.220;9.746;2023-05-17T12:51:54;15.80;97.20
16178;DHT22;8195;51.220;9.746;2023-05-17T13:02:19;15.50;97.20
16178;DHT22;8195;51.220;9.746;2023-05-17T13:13:00;15.40;97.20
16178;DHT22;8195;51.220;9.746;2023-05-17T13:23:21;15.20;97.20
16178;DHT22;8195;51.220;9.746;2023-05-17T13:44:32;14.70;97.20
16178;DHT22;8195;51.220;9.746;2023-05-17T13:54:53;14.40;97.20
16178;DHT22;8195;51.220;9.746;2023-05-17T14:05:14;14.50;97.20
16178;DHT22;8195;51.220;9.746;2023-05-17T14:15:58;14.40;97.20
16178;DHT22;8195;51.220;9.746;2023-05-17T14:26:24;14.20;97.20
16178;DHT22;8195;51.220;9.746;2023-05-17T14:58:29;13.50;97.20
16178;DHT22;8195;51.220;9.746;2023-05-17T15:08:59;13.40;97.20
16178;DHT22;8195;51.220;9.746;2023-05-17T15:19:20;13.20;97.20
16178;DHT22;8195;51.220;9.746;2023-05-17T15:29:47;12.90;97.20
16178;DHT22;8195;51.220;9.746;2023-05-17T15:40:09;12.80;97.20
16178;DHT22;8195;51.220;9.746;2023-05-17T15:50:30;12.80;97.20
16178;DHT22;8195;51.220;9.746;2023-05-17T16:00:51;12.70;97.20
16178;DHT22;8195;51.220;9.746;2023-05-17T16:11:16;12.80;97.20
16178;DHT22;8195;51.220;9.746;2023-05-17T16:21:37;12.80;97.20
16178;DHT22;8195;51.220;9.746;2023-05-17T16:31:58;12.90;97.20
16178;DHT22;8195;51.220;9.746;2023-05-17T16:42:19;12.80;97.20
16178;DHT22;8195;51.220;9.746;2023-05-17T16:52:39;12.70;97.20
16178;DHT22;8195;51.220;9.746;2023-05-17T17:03:00;12.50;97.20
16178;DHT22;8195;51.220;9.746;2023-05-17T17:13:21;12.30;97.20
16178;DHT22;8195;51.220;9.746;2023-05-17T17:24:04;11.90;97.20
16178;DHT22;8195;51.220;9.746;2023-05-17T17:34:25;11.80;97.20
16178;DHT22;8195;51.220;9.746;2023-05-17T17:44:46;11.40;97.20
16178;DHT22;8195;51.220;9.746;2023-05-17T17:55:08;11.20;97.20
16178;DHT22;8195;51.220;9.746;2023-05-17T18:05:29;11.00;97.20
16178;DHT22;8195;51.220;9.746;2023-05-17T18:16:29;10.80;97.20
16178;DHT22;8195;51.220;9.746;2023-05-17T18:26:50;10.50;97.20
16178;DHT22;8195;51.220;9.746;2023-05-17T18:37:11;10.30;97.20
16178;DHT22;8195;51.220;9.746;2023-05-17T18:47:32;10.00;97.20
16178;DHT22;8195;51.220;9.746;2023-05-17T18:57:53;9.80;97.20
16178;DHT22;8195;51.220;9.746;2023-05-17T19:08:23;9.70;97.20
16178;DHT22;8195;51.220;9.746;2023-05-17T19:18:44;9.50;97.20
16178;DHT22;8195;51.220;9.746;2023-05-17T19:29:08;9.30;97.20
16178;DHT22;8195;51.220;9.746;2023-05-17T19:39:29;9.20;97.20
16178;DHT22;8195;51.220;9.746;2023-05-17T19:49:53;9.00;97.20
16178;DHT22;8195;51.220;9.746;2023-05-17T20:00:17;8.70;97.20
16178;DHT22;8195;51.220;9.746;2023-05-17T20:10:42;8.50;97.20
16178;DHT22;8195;51.220;9.746;2023-05-17T20:21:14;8.30;97.20
16178;DHT22;8195;51.220;9.746;2023-05-17T20:31:36;8.10;97.20
16178;DHT22;8195;51.220;9.746;2023-05-17T20:41:57;8.00;97.20
16178;DHT22;8195;51.220;9.746;2023-05-17T20:52:18;7.70;97.20
16178;DHT22;8195;51.220;9.746;2023-05-17T21:02:39;7.50;97.20
16178;DHT22;8195;51.220;9.746;2023-05-17T21:13:21;7.30;97.20
16178;DHT22;8195;51.220;9.746;2023-05-17T21:23:46;7.20;97.20
16178;DHT22;8195;51.220;9.746;2023-05-17T21:34:10;7.20;97.20
16178;DHT22;8195;51.220;9.746;2023-05-17T21:44:32;7.10;97.20
16178;DHT22;8195;51.220;9.746;2023-05-17T21:54:52;7.00;97.20
16178;DHT22;8195;51.220;9.746;2023-05-17T22:05:13;6.80;97.20
16178;DHT22;8195;51.220;9.746;2023-05-17T22:15:37;6.60;97.20
16178;DHT22;8195;51.220;9.746;2023-05-17T22:25:58;6.50;97.20
16178;DHT22;8195;51.220;9.746;2023-05-17T22:36:19;6.30;97.20
16178;DHT22;8195;51.220;9.746;2023-05-17T22:46:40;6.20;97.20
16178;DHT22;8195;51.220;9.746;2023-05-17T22:57:01;6.00;97.20
16178;DHT22;8195;51.220;9.746;2023-05-17T23:07:22;6.00;97.20
16178;DHT22;8195;51.220;9.746;2023-05-17T23:17:43;5.90;97.20
16178;DHT22;8195;51.220;9.746;2023-05-17T23:28:04;5.80;97.20
16178;DHT22;8195;51.220;9.746;2023-05-17T23:38:25;5.80;97.20
16178;DHT22;8195;51.220;9.746;2023-05-17T23:48:46;5.70;97.20
16178;DHT22;8195;51.220;9.746;2023-05-17T23:59:07;5.70;97.20
